createdAt,value
2023-05-02T00:05:10.490Z,99.90
2023-05-02T00:15:15.508Z,97.90
2023-05-02T00:25:19.246Z,99.90
2023-05-02T00:35:24.158Z,99.50
2023-05-02T00:45:28.010Z,98.90
2023-05-02T00:55:34.718Z,99.20
2023-05-02T01:05:51.023Z,99.10
2023-05-02T01:15:57.770Z,99.90
2023-05-02T01:26:17.925Z,99.90
2023-05-02T01:36:27.027Z,99.90
2023-05-02T01:46:35.612Z,99.90
2023-05-02T01:56:41.713Z,99.90
2023-05-02T02:06:49.871Z,99.90
2023-05-02T02:16:57.677Z,99.90
2023-05-02T02:27:01.233Z,99.90
2023-05-02T02:37:12.624Z,99.90
2023-05-02T02:47:25.218Z,99.90
2023-05-02T02:57:40.398Z,99.90
2023-05-02T03:07:43.983Z,99.90
2023-05-02T03:17:48.886Z,99.90
2023-05-02T03:27:52.566Z,99.90
2023-05-02T03:37:57.518Z,99.90
2023-05-02T03:48:01.204Z,99.90
2023-05-02T03:58:06.229Z,99.90
2023-05-02T04:08:09.955Z,99.90
2023-05-02T04:18:15.035Z,99.90
2023-05-02T04:28:18.641Z,99.90
2023-05-02T04:38:23.783Z,99.90
2023-05-02T04:48:27.560Z,99.90
2023-05-02T04:58:35.103Z,99.90
2023-05-02T05:08:38.932Z,99.90
2023-05-02T05:18:44.099Z,99.90
2023-05-02T05:28:48.014Z,99.90
2023-05-02T05:38:53.653Z,99.90
2023-05-02T05:48:57.396Z,99.90
2023-05-02T05:59:02.460Z,99.90
2023-05-02T06:09:06.140Z,99.90
2023-05-02T06:19:11.532Z,99.90
2023-05-02T06:29:15.153Z,99.90
2023-05-02T06:39:20.131Z,99.90
2023-05-02T06:49:23.838Z,99.90
2023-05-02T06:59:28.939Z,99.90
2023-05-02T07:09:32.569Z,98.30
2023-05-02T07:19:37.501Z,97.80
2023-05-02T07:29:42.442Z,97.50
2023-05-02T07:39:47.614Z,95.70
2023-05-02T07:49:52.575Z,96.00
2023-05-02T07:59:58.135Z,96.10
2023-05-02T08:10:02.329Z,96.50
2023-05-02T08:20:09.581Z,96.00
2023-05-02T08:30:14.608Z,94.90
2023-05-02T08:40:30.423Z,94.50
2023-05-02T08:50:45.223Z,94.20
2023-05-02T09:00:52.058Z,94.70
2023-05-02T09:10:56.058Z,94.00
2023-05-02T09:21:02.668Z,94.90
2023-05-02T09:31:09.554Z,93.70
2023-05-02T09:41:15.080Z,92.30
2023-05-02T09:51:20.119Z,90.20
2023-05-02T10:01:25.185Z,89.60
2023-05-02T10:11:28.910Z,87.40
2023-05-02T10:21:37.130Z,86.20
2023-05-02T10:31:44.281Z,82.20
2023-05-02T10:41:50.019Z,84.60
2023-05-02T10:51:54.105Z,89.30
2023-05-02T11:01:59.579Z,88.50
2023-05-02T11:12:05.721Z,85.90
2023-05-02T11:22:34.255Z,79.90
2023-05-02T11:33:19.796Z,78.20
2023-05-02T11:43:31.930Z,80.00
2023-05-02T11:53:42.601Z,78.30
2023-05-02T12:03:49.411Z,75.60
2023-05-02T12:13:53.432Z,73.00
2023-05-02T12:23:58.872Z,74.00
2023-05-02T12:34:03.342Z,71.70
2023-05-02T12:44:08.386Z,77.50
2023-05-02T12:54:21.744Z,76.00
2023-05-02T13:04:36.632Z,71.50
2023-05-02T13:14:40.452Z,74.40
2023-05-02T13:24:46.959Z,81.30
2023-05-02T13:34:50.636Z,84.90
2023-05-02T13:44:55.649Z,79.30
2023-05-02T13:54:59.334Z,77.20
2023-05-02T14:05:04.461Z,71.20
2023-05-02T14:15:10.216Z,74.90
2023-05-02T14:25:15.620Z,82.10
2023-05-02T14:35:19.323Z,86.70
2023-05-02T14:45:24.580Z,77.00
2023-05-02T14:55:28.385Z,75.20
2023-05-02T15:05:33.893Z,72.80
2023-05-02T15:15:37.736Z,68.80
2023-05-02T15:25:44.514Z,67.80
2023-05-02T15:35:56.430Z,66.40
2023-05-02T15:46:01.834Z,67.90
2023-05-02T15:56:08.539Z,63.30
2023-05-02T16:06:15.859Z,68.10
2023-05-02T16:16:19.719Z,67.10
2023-05-02T16:26:24.769Z,63.80
2023-05-02T16:36:28.998Z,69.30
2023-05-02T16:46:34.214Z,69.00
2023-05-02T16:56:38.048Z,68.10
2023-05-02T17:06:44.049Z,68.80
2023-05-02T17:16:47.903Z,71.30
2023-05-02T17:26:53.868Z,69.30
2023-05-02T17:36:57.536Z,70.50
2023-05-02T17:47:02.969Z,71.90
2023-05-02T17:57:06.656Z,75.20
2023-05-02T18:07:11.835Z,77.90
2023-05-02T18:17:15.713Z,83.10
2023-05-02T18:27:21.228Z,86.30
2023-05-02T18:37:31.219Z,87.50
2023-05-02T18:47:36.833Z,89.00
2023-05-02T18:57:40.617Z,90.40
2023-05-02T19:07:45.888Z,91.10
2023-05-02T19:17:51.093Z,92.20
2023-05-02T19:27:56.296Z,93.20
2023-05-02T19:37:59.926Z,92.90
2023-05-02T19:48:05.735Z,92.60
2023-05-02T19:58:09.565Z,92.60
2023-05-02T20:08:14.661Z,92.90
2023-05-02T20:18:18.817Z,92.00
2023-05-02T20:28:24.900Z,92.40
2023-05-02T20:38:29.914Z,93.60
2023-05-02T20:48:35.019Z,94.50
2023-05-02T20:58:39.210Z,95.60
2023-05-02T21:08:44.981Z,96.70
2023-05-02T21:18:49.377Z,97.80
2023-05-02T21:28:55.492Z,97.90
2023-05-02T21:39:02.765Z,96.60
2023-05-02T21:49:10.472Z,96.30
2023-05-02T21:59:14.278Z,96.60
2023-05-02T22:09:19.306Z,96.80
2023-05-02T22:19:23.026Z,98.10
2023-05-02T22:29:28.029Z,98.50
2023-05-02T22:39:31.723Z,99.80
2023-05-02T22:49:36.723Z,99.90
2023-05-02T22:59:40.464Z,99.90
2023-05-02T23:09:45.565Z,99.90
2023-05-02T23:19:50.089Z,99.90
2023-05-02T23:29:55.193Z,99.90
2023-05-02T23:40:00.395Z,99.90
2023-05-02T23:50:06.208Z,99.90
